Time;durP1;ratioP1;P1;durP2;ratioP2;P2;SDS_P1;SDS_P2;PMS_P1;PMS_P2;Temp;Humidity;BMP_temperature;BMP_pressure;BME280_temperature;BME280_humidity;BME280_pressure;Samples;Min_cycle;Max_cycle;Signal;HPM_P1;HPM_P2
2022/12/09 00:00:24;;;;;;;33.47;18.10;;;;;;;9.17;95.33;99585.06;5052399;28;20219;-74
2022/12/09 00:02:50;;;;;;;37.80;18.50;;;;;;;8.99;96.09;99581.94;5052509;28;20634;-74
2022/12/09 00:05:17;;;;;;;36.40;17.97;;;;;;;9.05;96.95;99585.69;5051957;28;20591;-74
2022/12/09 00:07:44;;;;;;;34.33;18.30;;;;;;;9.12;96.39;99574.19;5052360;28;20197;-74
2022/12/09 00:10:12;;;;;;;35.10;18.73;;;;;;;9.13;96.21;99572.34;5051846;28;20250;-74
2022/12/09 00:12:39;;;;;;;36.17;16.63;;;;;;;9.09;96.34;99565.78;5053070;28;20224;-73
2022/12/09 00:15:06;;;;;;;39.60;18.07;;;;;;;9.00;96.68;99566.88;5052152;28;20197;-74
2022/12/09 00:17:33;;;;;;;34.53;17.70;;;;;;;9.07;97.60;99567.78;5052452;28;20189;-73
2022/12/09 00:19:59;;;;;;;35.37;17.90;;;;;;;9.12;96.40;99570.72;5052001;28;20224;-74
2022/12/09 00:22:27;;;;;;;33.07;17.37;;;;;;;9.20;96.68;99562.66;5051726;28;20192;-74
2022/12/09 00:24:54;;;;;;;33.33;18.33;;;;;;;9.05;96.79;99549.44;5051686;28;20672;-74
2022/12/09 00:27:22;;;;;;;27.53;16.17;;;;;;;9.11;97.14;99574.38;5053149;28;20192;-74
2022/12/09 00:29:48;;;;;;;27.20;15.53;;;;;;;9.03;97.39;99558.56;5051726;28;20246;-73
2022/12/09 00:32:15;;;;;;;36.63;16.47;;;;;;;9.19;97.51;99583.03;5051645;28;20220;-74
2022/12/09 00:34:42;;;;;;;31.60;15.60;;;;;;;9.08;97.34;99586.16;5051460;28;20639;-74
2022/12/09 00:37:08;;;;;;;25.83;14.87;;;;;;;9.00;97.47;99596.03;5051644;28;20193;-74
2022/12/09 00:39:35;;;;;;;25.27;15.00;;;;;;;8.94;97.89;99591.47;5051902;28;20192;-76
2022/12/09 00:42:02;;;;;;;28.40;15.17;;;;;;;8.89;98.09;99592.00;5051669;28;20197;-76
2022/12/09 00:44:30;;;;;;;26.07;15.77;;;;;;;8.89;97.75;99586.72;5051537;28;20197;-73
2022/12/09 00:46:56;;;;;;;31.07;16.17;;;;;;;9.02;98.38;99586.88;5051858;28;20259;-74
2022/12/09 00:49:23;;;;;;;30.67;15.70;;;;;;;9.09;97.58;99593.09;5051814;28;20189;-73
2022/12/09 00:51:52;;;;;;;30.50;15.77;;;;;;;9.09;97.62;99595.75;5051565;28;20224;-73
2022/12/09 00:54:19;;;;;;;30.47;16.10;;;;;;;9.18;97.44;99588.50;5051398;28;20196;-73
2022/12/09 00:56:46;;;;;;;28.63;15.23;;;;;;;9.23;97.25;99579.00;5051630;28;20628;-73
2022/12/09 00:59:12;;;;;;;31.83;16.20;;;;;;;9.18;97.20;99580.56;5051656;28;20196;-73
2022/12/09 01:01:40;;;;;;;26.83;14.93;;;;;;;9.05;97.81;99575.09;5051706;28;20196;-73
2022/12/09 01:04:07;;;;;;;24.47;14.27;;;;;;;8.93;98.07;99560.66;5051363;28;20582;-73
2022/12/09 01:06:34;;;;;;;21.20;14.20;;;;;;;9.00;97.78;99566.88;5051977;28;20326;-73
2022/12/09 01:09:02;;;;;;;27.40;14.17;;;;;;;8.90;99.19;99576.94;5051812;28;20623;-73
2022/12/09 01:11:29;;;;;;;26.17;16.07;;;;;;;8.93;98.68;99572.09;5051181;28;20220;-74
2022/12/09 01:13:59;;;;;;;25.00;14.53;;;;;;;8.84;99.18;99562.59;5051852;28;20224;-74
2022/12/09 01:16:28;;;;;;;19.73;13.30;;;;;;;8.80;99.95;99565.78;5055971;28;20247;-75
2022/12/09 01:18:59;;;;;;;23.90;14.00;;;;;;;8.69;99.79;99582.13;5055277;28;20275;-73
2022/12/09 01:21:26;;;;;;;22.37;12.80;;;;;;;8.75;100.00;99570.81;5053002;28;20754;-73
2022/12/09 01:23:53;;;;;;;40.37;23.67;;;;;;;8.82;100.00;99577.03;5054040;28;20192;-73
2022/12/09 01:26:20;;;;;;;32.77;18.10;;;;;;;8.82;100.00;99569.09;5053691;28;20321;-74
2022/12/09 01:28:51;;;;;;;23.37;15.27;;;;;;;8.81;100.00;99573.56;5054779;28;20188;-74
2022/12/09 01:31:20;;;;;;;22.03;13.67;;;;;;;8.77;100.00;99566.97;5055029;28;20191;-75
2022/12/09 01:33:47;;;;;;;21.07;13.80;;;;;;;8.77;100.00;99563.50;5054964;28;20196;-73
2022/12/09 01:36:18;;;;;;;23.03;14.40;;;;;;;8.84;100.00;99567.06;5054624;28;20279;-73
2022/12/09 01:38:45;;;;;;;22.27;14.53;;;;;;;8.70;100.00;99555.47;5054601;28;20181;-74
2022/12/09 01:41:12;;;;;;;25.63;14.10;;;;;;;8.79;100.00;99569.44;5054937;28;20193;-73
2022/12/09 01:43:40;;;;;;;25.37;14.93;;;;;;;8.75;100.00;99568.16;5054521;28;20661;-73
2022/12/09 01:46:07;;;;;;;26.23;14.73;;;;;;;8.86;100.00;99565.06;5054545;28;20197;-73
2022/12/09 01:48:38;;;;;;;23.73;14.47;;;;;;;8.95;100.00;99566.63;5054551;28;20234;-73
2022/12/09 01:51:11;;;;;;;21.47;14.27;;;;;;;8.93;99.78;99556.19;5055308;28;20285;-75
2022/12/09 01:53:42;;;;;;;20.10;13.13;;;;;;;8.91;99.49;99557.41;5054853;28;20269;-73
2022/12/09 01:56:15;;;;;;;20.30;13.20;;;;;;;8.90;100.00;99558.41;5054444;28;20267;-74
2022/12/09 01:58:42;;;;;;;19.53;12.43;;;;;;;8.97;99.75;99561.94;5054879;28;20188;-75
2022/12/09 02:01:08;;;;;;;19.97;13.47;;;;;;;8.99;98.97;99570.53;5054281;28;20250;-75
2022/12/09 02:03:35;;;;;;;18.53;14.00;;;;;;;9.00;99.26;99561.59;5055005;28;20209;-75
2022/12/09 02:06:02;;;;;;;17.03;12.87;;;;;;;9.04;98.61;99566.34;5054110;28;20197;-75
2022/12/09 02:08:28;;;;;;;17.53;12.13;;;;;;;9.05;98.61;99553.91;5054049;28;20228;-74
2022/12/09 02:11:07;;;;;;;18.97;11.60;;;;;;;9.07;98.79;99543.94;5054342;28;20200;-74
2022/12/09 02:13:44;;;;;;;16.37;11.00;;;;;;;9.08;98.90;99538.47;5055156;28;20215;-74
2022/12/09 02:16:15;;;;;;;17.63;12.10;;;;;;;9.11;99.05;99547.88;5054283;28;20238;-73
2022/12/09 02:18:48;;;;;;;19.47;12.40;;;;;;;9.14;99.00;99542.19;5055117;28;20227;-73
2022/12/09 02:21:20;;;;;;;20.27;13.63;;;;;;;9.17;98.67;99553.25;5054305;28;20228;-73
2022/12/09 02:23:53;;;;;;;16.83;11.83;;;;;;;9.17;98.57;99549.78;5055020;28;20193;-74
2022/12/09 02:26:25;;;;;;;18.43;12.27;;;;;;;9.14;98.29;99547.47;5053761;28;20223;-74
2022/12/09 02:29:25;;;;;;;15.10;11.50;;;;;;;9.22;99.49;99539.44;5053768;28;20231;-74
2022/12/09 02:32:33;;;;;;;22.13;13.33;;;;;;;9.27;98.15;99532.56;5053838;28;20204;-75
2022/12/09 02:35:08;;;;;;;30.23;15.60;;;;;;;9.30;97.15;99547.28;5041141;28;20200;-72
2022/12/09 02:37:40;;;;;;;26.63;15.47;;;;;;;9.31;97.92;99555.03;5054519;28;20188;-73
2022/12/09 02:40:12;;;;;;;38.13;17.57;;;;;;;9.35;97.51;99556.31;5053474;28;20738;-73
2022/12/09 02:42:39;;;;;;;28.40;16.10;;;;;;;9.41;97.36;99560.03;5054427;28;20246;-73
2022/12/09 02:45:09;;;;;;;27.47;17.30;;;;;;;9.45;98.06;99542.75;5053634;28;20196;-73
2022/12/09 02:47:41;;;;;;;19.77;12.60;;;;;;;9.36;97.50;99526.13;5054500;28;20589;-73
2022/12/09 02:50:13;;;;;;;18.50;10.87;;;;;;;9.53;97.18;99545.28;5053357;28;20192;-72
2022/12/09 02:52:42;;;;;;;15.63;11.33;;;;;;;9.60;96.67;99535.59;5054150;28;20330;-72
2022/12/09 02:55:13;;;;;;;15.63;11.07;;;;;;;9.63;96.38;99540.50;5053187;28;20192;-72
2022/12/09 02:57:40;;;;;;;15.80;10.90;;;;;;;9.65;96.60;99551.75;5053715;28;20192;-73
2022/12/09 03:00:09;;;;;;;16.80;11.23;;;;;;;9.70;96.50;99559.97;5053068;28;20192;-72
2022/12/09 03:02:37;;;;;;;14.93;11.13;;;;;;;9.71;96.23;99550.97;5053256;28;20200;-72
2022/12/09 03:05:14;;;;;;;16.50;12.07;;;;;;;9.75;96.19;99547.78;5053354;28;20196;-72
2022/12/09 03:07:45;;;;;;;21.27;11.93;;;;;;;9.80;96.24;99549.88;5052841;28;20180;-72
2022/12/09 03:10:17;;;;;;;18.07;11.47;;;;;;;9.79;95.06;99558.81;5053264;28;20618;-72
2022/12/09 03:12:49;;;;;;;18.63;10.93;;;;;;;9.72;96.08;99563.25;5053053;28;20212;-72
2022/12/09 03:15:21;;;;;;;15.47;10.57;;;;;;;9.60;95.92;99570.06;5053555;28;20189;-72
2022/12/09 03:17:48;;;;;;;18.47;11.60;;;;;;;9.54;96.85;99562.84;5053240;28;20184;-72
2022/12/09 03:20:22;;;;;;;15.37;10.73;;;;;;;9.54;97.45;99573.44;5052986;28;20646;-73
2022/12/09 03:22:50;;;;;;;17.97;11.87;;;;;;;9.55;97.59;99553.88;5052773;28;20249;-73
2022/12/09 03:25:21;;;;;;;18.27;12.37;;;;;;;9.58;97.76;99556.16;5053189;28;20192;-73
2022/12/09 03:27:52;;;;;;;15.63;11.20;;;;;;;9.46;97.58;99573.56;5053536;28;20185;-73
2022/12/09 03:30:20;;;;;;;18.20;10.73;;;;;;;9.41;98.09;99581.25;5053258;28;20185;-73
2022/12/09 03:32:47;;;;;;;18.97;11.53;;;;;;;9.40;97.80;99583.06;5052906;28;20216;-72
2022/12/09 03:35:20;;;;;;;21.73;11.93;;;;;;;9.41;98.55;99581.25;5052529;28;20192;-72
2022/12/09 03:37:49;;;;;;;17.03;11.97;;;;;;;9.43;98.93;99573.94;5052999;28;20238;-74
2022/12/09 03:40:22;;;;;;;17.00;12.00;;;;;;;9.47;98.54;99576.03;5053115;28;20200;-74
2022/12/09 03:42:53;;;;;;;18.20;12.70;;;;;;;9.49;98.57;99589.09;5053203;28;20198;-72
2022/12/09 03:45:22;;;;;;;17.17;12.30;;;;;;;9.43;97.93;99595.13;5052064;28;20235;-73
2022/12/09 03:47:49;;;;;;;17.63;11.73;;;;;;;9.34;98.03;99585.66;5052203;28;20275;-73
2022/12/09 03:50:18;;;;;;;18.20;11.30;;;;;;;9.34;98.35;99583.00;5052284;28;20266;-74
2022/12/09 03:52:48;;;;;;;19.67;11.53;;;;;;;9.42;98.09;99582.88;5052975;28;20220;-75
2022/12/09 03:55:20;;;;;;;16.80;11.77;;;;;;;9.42;98.27;99574.94;5052367;28;20245;-74
2022/12/09 03:57:51;;;;;;;15.17;11.57;;;;;;;9.41;98.00;99575.97;5052047;28;20238;-74
2022/12/09 04:00:18;;;;;;;19.90;11.60;;;;;;;9.38;98.34;99571.03;5053042;28;20188;-73
2022/12/09 04:02:46;;;;;;;26.83;12.47;;;;;;;9.36;99.15;99573.06;5052855;28;20251;-73
2022/12/09 04:05:13;;;;;;;22.30;13.93;;;;;;;9.34;98.79;99575.88;5051870;28;20254;-73
2022/12/09 04:07:41;;;;;;;22.17;12.20;;;;;;;9.31;99.33;99573.59;5051956;28;20196;-73
2022/12/09 04:10:08;;;;;;;25.40;13.97;;;;;;;9.32;99.95;99574.44;5051834;28;20330;-73
2022/12/09 04:12:35;;;;;;;17.30;12.50;;;;;;;9.37;99.59;99574.69;5052085;28;20266;-73
2022/12/09 04:15:01;;;;;;;23.07;11.90;;;;;;;9.34;99.08;99577.69;5051776;28;20200;-72
2022/12/09 04:17:28;;;;;;;22.20;12.73;;;;;;;9.36;99.76;99573.84;5052090;28;20196;-73
2022/12/09 04:19:55;;;;;;;21.17;11.70;;;;;;;9.44;99.44;99571.09;5052426;28;20275;-72
2022/12/09 04:22:21;;;;;;;33.47;13.63;;;;;;;9.52;99.40;99567.53;5051684;28;20253;-76
2022/12/09 04:24:49;;;;;;;24.17;13.03;;;;;;;9.58;98.47;99566.75;5052136;28;20196;-76
2022/12/09 04:27:16;;;;;;;21.60;13.30;;;;;;;9.53;98.07;99559.38;5052105;28;20555;-76
2022/12/09 04:29:43;;;;;;;27.50;14.40;;;;;;;9.52;98.02;99560.38;5052662;28;20272;-74
2022/12/09 04:32:10;;;;;;;25.20;13.90;;;;;;;9.50;98.41;99553.63;5051516;28;20197;-74
2022/12/09 04:34:36;;;;;;;19.97;12.97;;;;;;;9.53;98.34;99553.25;5051645;28;20197;-73
2022/12/09 04:37:03;;;;;;;25.07;13.27;;;;;;;9.51;98.54;99549.94;5051890;28;20635;-73
2022/12/09 04:39:30;;;;;;;17.93;12.00;;;;;;;9.54;98.81;99554.88;5052018;28;20226;-73
2022/12/09 04:41:58;;;;;;;24.57;12.70;;;;;;;9.56;97.98;99553.69;5051815;28;20246;-74
2022/12/09 04:44:25;;;;;;;19.93;11.70;;;;;;;9.63;97.34;99548.44;5051594;28;20725;-74
2022/12/09 04:46:52;;;;;;;19.53;12.13;;;;;;;9.66;97.56;99556.03;5051806;28;20196;-74
2022/12/09 04:49:18;;;;;;;30.30;14.57;;;;;;;9.65;97.50;99562.34;5054491;28;20246;-73
2022/12/09 04:51:45;;;;;;;17.87;12.27;;;;;;;9.69;96.95;99547.72;5055930;28;20192;-74
2022/12/09 04:54:13;;;;;;;23.67;11.87;;;;;;;9.71;96.69;99548.31;5055195;28;20274;-73
2022/12/09 04:56:40;;;;;;;19.90;12.37;;;;;;;9.68;96.80;99556.69;5055722;28;20203;-73
2022/12/09 04:59:08;;;;;;;24.17;13.13;;;;;;;9.70;96.37;99554.66;5056120;28;20193;-74
2022/12/09 05:01:35;;;;;;;24.23;11.97;;;;;;;9.74;96.26;99566.53;5055314;28;20749;-75
2022/12/09 05:04:01;;;;;;;27.33;13.37;;;;;;;9.75;96.12;99563.69;5056235;28;20192;-74
2022/12/09 05:06:28;;;;;;;25.57;12.80;;;;;;;9.73;95.85;99578.16;5054900;28;20279;-74
2022/12/09 05:08:55;;;;;;;23.90;11.80;;;;;;;9.66;96.40;99564.00;5055862;28;20223;-73
2022/12/09 05:11:22;;;;;;;25.47;12.90;;;;;;;9.59;96.90;99568.41;5055159;28;20664;-74
2022/12/09 05:13:49;;;;;;;26.43;13.30;;;;;;;9.55;97.11;99572.44;5054966;28;20231;-74
2022/12/09 05:16:18;;;;;;;25.57;13.47;;;;;;;9.56;97.85;99576.75;5054748;28;20259;-73
2022/12/09 05:18:46;;;;;;;19.67;12.13;;;;;;;9.56;97.32;99580.19;5055158;28;20196;-73
2022/12/09 05:21:15;;;;;;;24.43;13.30;;;;;;;9.62;97.52;99578.63;5054576;28;20291;-73
2022/12/09 05:23:42;;;;;;;40.30;14.13;;;;;;;9.67;97.71;99592.16;5055088;28;20196;-73
2022/12/09 05:26:11;;;;;;;21.10;12.37;;;;;;;9.55;97.44;99583.88;5055262;28;20197;-73
2022/12/09 05:28:38;;;;;;;18.67;11.93;;;;;;;9.50;97.74;99573.00;5054656;28;20193;-73
2022/12/09 05:31:06;;;;;;;20.00;12.03;;;;;;;9.56;97.27;99579.41;5054510;28;20660;-72
2022/12/09 05:33:34;;;;;;;25.57;12.83;;;;;;;9.60;96.97;99586.78;5054846;28;20246;-74
2022/12/09 05:36:01;;;;;;;19.80;12.60;;;;;;;9.54;96.72;99587.53;5054548;28;20322;-74
2022/12/09 05:38:28;;;;;;;43.47;15.97;;;;;;;9.51;96.64;99579.94;5054703;28;20192;-74
2022/12/09 05:40:54;;;;;;;20.23;12.23;;;;;;;9.38;96.85;99555.94;5054757;28;20197;-75
2022/12/09 05:43:21;;;;;;;21.23;11.80;;;;;;;9.56;97.14;99572.25;5054613;28;20254;-74
2022/12/09 05:45:48;;;;;;;22.83;13.30;;;;;;;9.58;97.08;99577.38;5054509;28;20192;-73
2022/12/09 05:48:14;;;;;;;21.03;12.07;;;;;;;9.63;96.69;99585.56;5054497;28;20192;-74
2022/12/09 05:50:42;;;;;;;24.53;13.20;;;;;;;9.67;96.48;99576.22;5054791;28;20193;-75
2022/12/09 05:53:09;;;;;;;28.37;12.73;;;;;;;9.68;96.10;99583.22;5053975;28;20838;-73
2022/12/09 05:55:40;;;;;;;30.97;11.63;;;;;;;9.67;95.86;99577.06;5054334;28;20189;-73
2022/12/09 05:58:06;;;;;;;45.87;13.17;;;;;;;9.60;95.99;99586.78;5053909;28;20189;-73
2022/12/09 06:00:33;;;;;;;25.50;14.03;;;;;;;9.52;96.17;99591.38;5054103;28;20715;-73
2022/12/09 06:02:59;;;;;;;45.63;17.27;;;;;;;9.42;96.74;99589.03;5045294;28;20193;-72
2022/12/09 06:05:26;;;;;;;31.53;16.53;;;;;;;9.42;97.52;99585.53;5053230;28;20258;-74
2022/12/09 06:07:54;;;;;;;32.43;16.13;;;;;;;9.49;97.89;99599.72;5053380;28;20333;-73
2022/12/09 06:10:21;;;;;;;35.40;16.17;;;;;;;9.53;97.76;99604.47;5054120;28;20273;-74
2022/12/09 06:12:48;;;;;;;27.40;16.03;;;;;;;9.51;97.98;99602.97;5054380;28;20200;-76
2022/12/09 06:15:14;;;;;;;62.67;18.60;;;;;;;9.54;97.94;99602.63;5052071;28;20680;-76
2022/12/09 06:17:41;;;;;;;50.17;14.97;;;;;;;9.52;96.73;99605.44;5053122;28;20201;-78
2022/12/09 06:20:08;;;;;;;32.17;13.70;;;;;;;9.55;97.04;99620.16;5052006;28;20224;-77
2022/12/09 06:22:35;;;;;;;44.57;14.80;;;;;;;9.59;98.28;99626.72;5053454;28;20196;-78
2022/12/09 06:25:04;;;;;;;34.93;16.90;;;;;;;9.62;96.81;99626.38;5053450;28;20204;-76
2022/12/09 06:27:31;;;;;;;23.20;14.73;;;;;;;9.45;96.71;99630.25;5051548;28;20694;-75
2022/12/09 06:29:57;;;;;;;26.07;15.47;;;;;;;9.25;96.61;99630.00;5053227;28;20246;-72
2022/12/09 06:32:24;;;;;;;26.83;14.70;;;;;;;9.13;97.90;99634.13;5053152;28;20262;-73
2022/12/09 06:34:51;;;;;;;24.97;15.00;;;;;;;9.07;98.25;99636.69;5052899;28;20212;-73
2022/12/09 06:37:18;;;;;;;23.07;14.70;;;;;;;8.98;98.76;99628.00;5052890;28;20197;-72
2022/12/09 06:39:44;;;;;;;26.50;16.23;;;;;;;9.04;100.00;99629.09;5053084;28;20246;-73
2022/12/09 06:42:12;;;;;;;27.00;15.10;;;;;;;9.03;100.00;99627.47;5053337;28;20226;-74
2022/12/09 06:44:39;;;;;;;28.77;15.37;;;;;;;8.98;100.00;99632.47;5053813;28;20192;-71
2022/12/09 06:47:06;;;;;;;29.17;14.33;;;;;;;8.94;100.00;99623.25;5053542;28;20636;-73
2022/12/09 06:49:32;;;;;;;35.63;15.77;;;;;;;8.96;100.00;99631.84;5053621;28;20192;-73
2022/12/09 06:51:59;;;;;;;33.57;14.80;;;;;;;8.91;100.00;99632.38;5053758;28;20243;-72
2022/12/09 06:54:26;;;;;;;31.70;14.60;;;;;;;8.88;100.00;99627.44;5053294;28;20265;-73
2022/12/09 06:56:53;;;;;;;27.70;13.27;;;;;;;8.82;100.00;99632.66;5053378;28;20254;-76
2022/12/09 06:59:21;;;;;;;17.43;12.50;;;;;;;8.78;100.00;99631.38;5053053;28;20196;-73
2022/12/09 07:01:47;;;;;;;21.27;12.83;;;;;;;8.78;100.00;99636.66;5053103;28;20196;-77
2022/12/09 07:04:14;;;;;;;27.17;16.93;;;;;;;8.80;100.00;99629.34;5052554;28;20668;-76
2022/12/09 07:06:43;;;;;;;27.03;16.30;;;;;;;8.87;100.00;99624.97;5053986;28;20250;-75
2022/12/09 07:09:12;;;;;;;25.23;17.27;;;;;;;9.00;100.00;99633.13;5053080;28;20266;-73
2022/12/09 07:11:41;;;;;;;31.90;16.70;;;;;;;9.04;100.00;99632.56;5048474;28;20692;-75
2022/12/09 07:14:08;;;;;;;26.60;15.53;;;;;;;9.10;100.00;99637.13;5051893;28;20228;-77
2022/12/09 07:16:36;;;;;;;32.37;14.47;;;;;;;9.15;100.00;99633.94;5042902;28;20231;-71
2022/12/09 07:19:04;;;;;;;32.87;14.57;;;;;;;9.22;100.00;99637.47;5046047;28;20680;-72
2022/12/09 07:21:31;;;;;;;58.93;15.63;;;;;;;9.16;100.00;99636.41;5052345;28;20652;-71
2022/12/09 07:23:59;;;;;;;35.00;13.83;;;;;;;9.19;100.00;99643.16;5050597;28;20250;-72
2022/12/09 07:26:26;;;;;;;61.00;14.70;;;;;;;9.31;100.00;99633.75;5036727;28;20185;-71
2022/12/09 07:28:53;;;;;;;41.90;13.53;;;;;;;9.45;100.00;99635.56;5050342;28;20192;-73
2022/12/09 07:31:21;;;;;;;21.50;12.53;;;;;;;9.59;99.53;99626.72;5052600;28;20626;-73
2022/12/09 07:33:50;;;;;;;18.87;12.27;;;;;;;9.66;98.86;99622.34;5052117;28;20650;-72
2022/12/09 07:36:17;;;;;;;29.17;12.77;;;;;;;9.71;97.04;99630.53;5050969;28;20261;-69
2022/12/09 07:38:44;;;;;;;24.70;13.47;;;;;;;9.74;97.67;99632.84;5032306;28;20255;-70
2022/12/09 07:41:16;;;;;;;25.53;12.53;;;;;;;9.78;97.16;99631.44;5042566;28;20672;-72
2022/12/09 07:43:44;;;;;;;40.20;12.80;;;;;;;9.80;96.83;99624.94;5052196;28;20262;-73
2022/12/09 07:46:11;;;;;;;32.63;12.60;;;;;;;9.86;96.01;99629.53;5052252;28;20192;-75
2022/12/09 07:48:38;;;;;;;33.80;11.57;;;;;;;9.96;96.50;99637.97;5052529;28;20196;-74
2022/12/09 07:51:06;;;;;;;58.13;20.43;;;;;;;10.00;95.32;99635.75;5051852;28;20246;-75
2022/12/09 07:53:35;;;;;;;21.83;12.30;;;;;;;9.94;94.97;99636.53;5052190;28;20723;-73
2022/12/09 07:56:02;;;;;;;18.93;10.50;;;;;;;9.93;95.83;99648.16;5052202;28;20192;-69
2022/12/09 07:58:29;;;;;;;81.73;26.53;;;;;;;9.85;95.39;99637.66;5052009;28;20238;-70
2022/12/09 08:00:56;;;;;;;30.47;16.43;;;;;;;9.90;95.95;99640.56;5052251;28;20270;-70
2022/12/09 08:03:22;;;;;;;23.03;13.23;;;;;;;9.86;95.51;99639.28;5052294;28;20196;-71
2022/12/09 08:05:50;;;;;;;23.63;12.27;;;;;;;9.85;95.88;99643.78;5053128;28;20322;-71
2022/12/09 08:08:18;;;;;;;114.07;17.17;;;;;;;9.91;95.77;99644.84;5052189;28;20249;-72
2022/12/09 08:10:46;;;;;;;51.77;15.87;;;;;;;9.93;94.94;99651.63;5052341;28;20242;-69
2022/12/09 08:13:12;;;;;;;59.77;14.00;;;;;;;9.84;94.64;99646.59;5051787;28;20284;-70
2022/12/09 08:15:39;;;;;;;23.57;12.27;;;;;;;9.78;95.36;99639.41;5050381;28;20227;-68
2022/12/09 08:18:06;;;;;;;19.57;12.10;;;;;;;9.69;95.51;99633.38;5058881;28;20200;-71
2022/12/09 08:20:33;;;;;;;33.87;12.37;;;;;;;9.60;96.12;99645.13;5051742;28;20293;-70
2022/12/09 08:22:59;;;;;;;30.80;13.20;;;;;;;9.58;97.62;99633.06;5051988;28;20188;-71
2022/12/09 08:25:27;;;;;;;49.43;13.33;;;;;;;9.79;96.78;99654.31;5051805;28;20552;-70
2022/12/09 08:27:54;;;;;;;32.73;15.33;;;;;;;9.85;96.67;99648.28;5052001;28;20249;-71
2022/12/09 08:30:21;;;;;;;34.57;13.37;;;;;;;9.96;96.68;99639.81;5051251;28;20201;-71
2022/12/09 08:32:48;;;;;;;67.23;16.57;;;;;;;9.88;95.74;99610.72;5051173;28;20223;-72
2022/12/09 08:35:14;;;;;;;27.53;14.47;;;;;;;10.08;95.04;99633.00;5051411;28;20577;-72
2022/12/09 08:37:41;;;;;;;28.67;13.93;;;;;;;10.14;95.12;99626.97;5041740;28;20239;-70
2022/12/09 08:40:09;;;;;;;27.57;14.57;;;;;;;10.17;94.44;99622.09;5042313;28;20246;-73
2022/12/09 08:42:37;;;;;;;34.10;14.70;;;;;;;10.21;94.86;99627.84;5048628;28;20282;-71
2022/12/09 08:45:05;;;;;;;47.83;16.37;;;;;;;10.21;93.81;99630.50;5051469;28;20208;-72
2022/12/09 08:47:33;;;;;;;57.50;15.43;;;;;;;10.18;94.32;99623.72;5051968;28;20709;-71
2022/12/09 08:49:59;;;;;;;23.93;13.57;;;;;;;10.20;94.45;99626.19;5051391;28;20314;-70
2022/12/09 08:52:26;;;;;;;39.50;16.80;;;;;;;10.27;94.34;99627.91;5051753;28;20196;-71
2022/12/09 08:54:53;;;;;;;37.40;14.93;;;;;;;10.28;94.17;99634.03;5051316;28;20216;-71
2022/12/09 08:57:22;;;;;;;51.27;16.03;;;;;;;10.16;93.52;99630.22;5051579;28;20671;-71
2022/12/09 08:59:50;;;;;;;31.07;15.40;;;;;;;10.04;93.79;99621.94;5051777;28;20672;-70
2022/12/09 09:02:17;;;;;;;39.10;14.87;;;;;;;10.00;94.48;99627.78;5050725;28;20246;-69
2022/12/09 09:04:43;;;;;;;74.00;17.33;;;;;;;9.93;94.91;99619.78;5050806;28;20564;-72
2022/12/09 09:07:10;;;;;;;64.13;16.73;;;;;;;9.91;95.22;99615.66;5051479;28;20231;-72
2022/12/09 09:09:37;;;;;;;31.60;15.17;;;;;;;10.00;95.77;99619.84;5052191;28;20193;-70
2022/12/09 09:12:04;;;;;;;29.30;15.03;;;;;;;10.06;95.28;99609.31;5051912;28;20208;-73
2022/12/09 09:14:31;;;;;;;35.77;15.30;;;;;;;10.13;94.41;99598.78;5051373;28;20273;-71
2022/12/09 09:16:59;;;;;;;42.57;16.90;;;;;;;10.18;94.72;99604.34;5050858;28;20326;-74
2022/12/09 09:19:26;;;;;;;33.53;15.47;;;;;;;10.27;93.86;99595.22;5051016;28;20259;-70
2022/12/09 09:21:53;;;;;;;29.20;14.13;;;;;;;10.30;93.71;99577.06;5051340;28;20185;-70
2022/12/09 09:24:23;;;;;;;44.60;15.43;;;;;;;10.37;93.61;99579.78;5049776;28;20209;-71
2022/12/09 09:26:51;;;;;;;32.47;15.90;;;;;;;10.41;92.18;99581.03;5050510;28;20192;-70
2022/12/09 09:29:19;;;;;;;24.33;14.47;;;;;;;10.27;91.88;99577.47;5034643;28;20220;-69
2022/12/09 09:31:47;;;;;;;26.23;15.33;;;;;;;10.32;92.80;99576.88;5049522;28;20246;-71
2022/12/09 09:34:16;;;;;;;32.10;15.03;;;;;;;10.40;92.54;99579.41;5051312;28;20260;-70
2022/12/09 09:36:43;;;;;;;25.50;14.07;;;;;;;10.41;92.46;99581.03;5054415;28;20593;-71
2022/12/09 09:39:10;;;;;;;84.63;18.07;;;;;;;10.49;92.25;99575.56;5054553;28;20716;-67
2022/12/09 09:41:51;;;;;;;29.37;13.53;;;;;;;10.65;96.92;99564.66;5054992;28;20231;-64
2022/12/09 09:44:32;;;;;;;30.47;15.60;;;;;;;10.84;95.40;99556.84;5054663;28;20189;-68
2022/12/09 09:47:00;;;;;;;47.10;17.23;;;;;;;10.83;91.64;99549.06;5055412;28;20286;-71
2022/12/09 09:49:35;;;;;;;41.70;15.80;;;;;;;10.93;90.70;99568.09;5054330;28;20641;-71
2022/12/09 09:52:06;;;;;;;35.07;15.70;;;;;;;10.94;90.85;99569.72;5052036;28;20176;-68
2022/12/09 09:54:33;;;;;;;34.03;15.33;;;;;;;10.86;90.89;99561.91;5053953;28;20204;-68
2022/12/09 09:57:05;;;;;;;36.03;16.17;;;;;;;10.70;89.89;99540.97;5051386;28;20661;-70
2022/12/09 09:59:42;;;;;;;35.73;17.40;;;;;;;10.72;91.03;99557.56;5052401;28;20180;-72
2022/12/09 10:02:18;;;;;;;34.00;17.07;;;;;;;10.73;90.14;99559.19;5052971;28;20242;-72
2022/12/09 10:04:55;;;;;;;33.70;15.90;;;;;;;10.65;90.23;99546.06;5053567;28;20283;-70
2022/12/09 10:07:30;;;;;;;35.27;17.90;;;;;;;10.62;90.73;99541.16;5054115;28;20200;-74
2022/12/09 10:10:12;;;;;;;29.67;17.07;;;;;;;10.61;91.49;99540.34;5051932;28;20180;-71
2022/12/09 10:12:54;;;;;;;36.70;16.63;;;;;;;10.58;91.30;99521.31;5052051;28;20631;-70
2022/12/09 10:15:28;;;;;;;29.60;17.10;;;;;;;10.61;92.02;99526.22;5053630;28;20235;-70
2022/12/09 10:18:08;;;;;;;42.90;18.17;;;;;;;10.71;91.27;99524.06;5053692;28;20189;-70
2022/12/09 10:20:37;;;;;;;31.23;17.63;;;;;;;10.76;90.33;99526.94;5059173;28;20216;-71
2022/12/09 10:23:10;;;;;;;42.80;17.63;;;;;;;10.90;90.59;99531.28;5055977;28;20274;-70
2022/12/09 10:25:43;;;;;;;34.53;18.87;;;;;;;10.99;90.15;99504.34;5056554;28;20303;-70
2022/12/09 10:28:19;;;;;;;39.17;17.97;;;;;;;11.08;89.07;99505.00;5055619;28;20189;-69
2022/12/09 10:30:46;;;;;;;37.90;18.00;;;;;;;11.22;88.85;99490.72;5044728;28;20272;-70
2022/12/09 10:33:14;;;;;;;46.20;17.67;;;;;;;11.34;88.83;99482.97;5053836;28;20251;-71
2022/12/09 10:35:42;;;;;;;47.40;18.50;;;;;;;11.52;88.47;99491.22;5053131;28;20213;-68
2022/12/09 10:38:10;;;;;;;41.07;17.73;;;;;;;11.67;87.28;99482.06;5040923;28;20199;-66
2022/12/09 10:40:52;;;;;;;57.40;19.83;;;;;;;11.78;86.62;99476.16;5043137;28;20669;-67
2022/12/09 10:43:36;;;;;;;42.37;19.13;;;;;;;11.90;86.30;99476.34;5052479;28;20189;-67
2022/12/09 10:46:06;;;;;;;29.10;19.37;;;;;;;11.78;85.24;99478.81;5052481;28;20574;-68
2022/12/09 10:48:36;;;;;;;34.13;19.47;;;;;;;11.62;86.11;99460.56;5051242;28;20646;-63
2022/12/09 10:51:06;;;;;;;47.60;20.53;;;;;;;11.49;85.36;99468.50;5052721;28;20194;-67
2022/12/09 10:53:35;;;;;;;31.37;21.00;;;;;;;11.47;86.42;99459.91;5053641;28;20632;-68
2022/12/09 10:56:02;;;;;;;36.30;20.43;;;;;;;11.57;87.21;99463.00;5053094;28;20310;-69
2022/12/09 10:58:31;;;;;;;36.57;21.83;;;;;;;11.67;86.86;99452.78;5053295;28;20244;-70
2022/12/09 11:01:02;;;;;;;38.97;23.30;;;;;;;11.61;85.86;99442.97;5053566;28;20197;-69
2022/12/09 11:03:33;;;;;;;44.47;22.97;;;;;;;11.55;86.07;99438.41;5053644;28;20209;-66
2022/12/09 11:06:18;;;;;;;42.93;24.40;;;;;;;11.64;86.44;99439.88;5053323;28;20254;-65
2022/12/09 11:08:50;;;;;;;46.23;25.63;;;;;;;11.60;86.42;99429.84;5050295;28;20199;-67
2022/12/09 11:11:18;;;;;;;49.70;27.03;;;;;;;11.70;86.11;99447.06;5053674;28;20586;-66
2022/12/09 11:13:45;;;;;;;47.50;27.70;;;;;;;11.73;85.85;99441.34;5053114;28;20202;-66
2022/12/09 11:16:12;;;;;;;49.97;28.10;;;;;;;11.77;85.66;99439.91;5052656;28;20705;-66
2022/12/09 11:18:44;;;;;;;46.83;26.50;;;;;;;11.78;86.06;99444.22;5052679;28;20205;-67
2022/12/09 11:21:34;;;;;;;51.93;27.80;;;;;;;11.85;85.46;99444.22;5052998;28;20217;-67
2022/12/09 11:24:00;;;;;;;51.70;28.93;;;;;;;11.82;85.35;99444.59;5052617;28;20238;-68
2022/12/09 11:26:33;;;;;;;56.17;27.97;;;;;;;11.80;85.40;99430.69;5052836;28;20194;-69
2022/12/09 11:29:04;;;;;;;56.90;26.40;;;;;;;11.80;86.06;99423.53;5053714;28;20229;-67